Погода Тазана 2 недели

Фес, Марокко

14 - 27 июля
  • 14июля
    Сегодня
    +21°
    +40°
    Ясно и безоблачно
    ВремяПогодаТемператураВлажностьДавлениеВетер, м/сВероятность осадков
    01:00Ясно и безоблачно+26°C39 %711 мм3.4 м/с2 %
    04:00Ясно и безоблачно+22°C48 %710 мм1.3 м/с2 %
    07:00Ясно и безоблачно+22°C51 %711 мм0.3 м/с2 %
    10:00Ясно и безоблачно+31°C27 %712 мм1.3 м/с2 %
    13:00Ясно и безоблачно+37°C15 %712 мм3.8 м/с2 %
    16:00Ясно и безоблачно+39°C8 %711 мм4.5 м/с2 %
    19:00Ясно и безоблачно+37°C12 %711 мм5.0 м/с2 %
    22:00Ясно и безоблачно+30°C16 %712 мм3.2 м/с2 %
  • 15июля
    Понедельник
    +20°
    +38°
    Ясно и безоблачно
    ВремяПогодаТемператураВлажностьДавлениеВетер, м/сВероятность осадков
    01:00Ясно и безоблачно+26°C30 %712 мм2.7 м/с2 %
    04:00Ясно и безоблачно+23°C37 %711 мм2.2 м/с2 %
    07:00Ясно и безоблачно+22°C41 %712 мм1.6 м/с2 %
    10:00Ясно и безоблачно+29°C28 %713 мм3.1 м/с2 %
    13:00Ясно и безоблачно+35°C18 %713 мм3.8 м/с2 %
    16:00Ясно и безоблачно+37°C13 %712 мм5.2 м/с2 %
    19:00Ясно и безоблачно+35°C14 %712 мм6.0 м/с2 %
    22:00Ясно и безоблачно+29°C28 %713 мм3.4 м/с2 %
  • 16июля
    Вторник
    +22°
    +39°
    Ясно и безоблачно
    ВремяПогодаТемператураВлажностьДавлениеВетер, м/сВероятность осадков
    01:00Практически безоблачно+25°C49 %714 мм3.3 м/с2 %
    04:00Ясно и безоблачно+21°C59 %712 мм2.5 м/с2 %
    07:00Ясно и безоблачно+21°C60 %712 мм1.5 м/с2 %
    10:00Ясно и безоблачно+28°C37 %713 мм0.8 м/с2 %
    13:00Ясно и безоблачно+35°C19 %713 мм2.5 м/с2 %
    16:00Ясно и безоблачно+39°C13 %711 мм2.7 м/с2 %
    19:00Ясно и безоблачно+37°C18 %711 мм1.6 м/с2 %
    22:00Ясно и безоблачно+29°C35 %712 мм2.1 м/с2 %
  • 17июля
    Среда
    +23°
    +41°
    Небольшая облачность
    ВремяПогодаТемператураВлажностьДавлениеВетер, м/сВероятность осадков
    01:00Ясно и безоблачно+26°C46 %712 мм0.8 м/с2 %
    04:00Ясно и безоблачно+22°C55 %711 мм1.0 м/с2 %
    07:00Ясно и безоблачно+24°C47 %711 мм1.7 м/с2 %
    10:00Ясно и безоблачно+31°C29 %712 мм4.1 м/с2 %
    13:00Небольшая облачность+38°C20 %712 мм4.2 м/с2 %
    16:00Облачно с прояснениями+41°C15 %711 мм3.7 м/с2 %
    19:00Небольшая облачность+39°C22 %711 мм4.1 м/с2 %
    22:00Небольшая облачность+31°C37 %712 мм3.3 м/с2 %
  • 18июля
    Четверг
    +26°
    +44°
    Облачно с прояснениями
    ВремяПогодаТемператураВлажностьДавлениеВетер, м/сВероятность осадков
    01:00Ясно и безоблачно+28°C44 %711 мм1.3 м/с2 %
    04:00Ясно и безоблачно+26°C50 %710 мм1.7 м/с2 %
    07:00Ясно и безоблачно+25°C51 %711 мм0.9 м/с2 %
    10:00Практически безоблачно+34°C36 %713 мм2.7 м/с2 %
    13:00Облачно с прояснениями+40°C19 %713 мм3.3 м/с3 %
    16:00Облачно с прояснениями+43°C11 %712 мм0.8 м/с8 %
    19:00Облачно с прояснениями+42°C10 %712 мм1.1 м/с6 %
    22:00Небольшая облачность+34°C33 %714 мм1.2 м/с2 %
Мы используем cookies
Соглашаюсь